createdAt,value
2022-11-07T00:00:50.598Z,94966.94
2022-11-07T00:03:58.954Z,94963.06
2022-11-07T00:07:08.409Z,94976.66
2022-11-07T00:10:16.945Z,94973.97
2022-11-07T00:13:27.330Z,94970.06
2022-11-07T00:16:37.258Z,94975.38
2022-11-07T00:19:45.833Z,94981.59
2022-11-07T00:22:54.163Z,94991.72
2022-11-07T00:26:03.550Z,94993.03
2022-11-07T00:29:15.179Z,94986.50
2022-11-07T00:32:24.724Z,94982.41
2022-11-07T00:35:33.314Z,94983.94
2022-11-07T00:38:41.601Z,94985.06
2022-11-07T00:41:50.491Z,94995.91
2022-11-07T00:44:58.675Z,94995.47
2022-11-07T00:48:08.634Z,94992.59
2022-11-07T00:51:19.537Z,95003.28
2022-11-07T00:54:27.889Z,94996.38
2022-11-07T00:57:36.503Z,95008.00
2022-11-07T01:00:44.861Z,95015.41
2022-11-07T01:04:12.581Z,95015.47
2022-11-07T01:07:20.910Z,95024.75
2022-11-07T01:10:29.262Z,95021.41
2022-11-07T01:13:38.556Z,95030.22
2022-11-07T01:16:47.576Z,95030.41
2022-11-07T01:19:57.549Z,95016.41
2022-11-07T01:23:06.039Z,95016.31
2022-11-07T01:26:16.076Z,95030.34
2022-11-07T01:29:24.801Z,95017.69
2022-11-07T01:32:33.395Z,95020.38
2022-11-07T01:35:47.015Z,95024.22
2022-11-07T01:38:55.744Z,95020.09
2022-11-07T01:42:04.838Z,95020.00
2022-11-07T01:45:21.532Z,95024.72
2022-11-07T01:48:29.996Z,95029.66
2022-11-07T01:51:47.640Z,95033.41
2022-11-07T01:55:02.600Z,95037.09
2022-11-07T01:58:11.635Z,95036.16
2022-11-07T02:01:20.197Z,95047.22
2022-11-07T02:04:31.858Z,95046.22
2022-11-07T02:07:42.801Z,95044.91
2022-11-07T02:10:52.835Z,95039.59
2022-11-07T02:14:01.096Z,95048.78
2022-11-07T02:17:10.192Z,95047.94
2022-11-07T02:20:18.994Z,95048.88
2022-11-07T02:23:42.306Z,95043.84
2022-11-07T02:26:55.045Z,95050.25
2022-11-07T02:30:09.836Z,95049.59
2022-11-07T02:33:20.242Z,95042.63
2022-11-07T02:36:29.035Z,95040.91
2022-11-07T02:39:37.577Z,95035.16
2022-11-07T02:42:48.839Z,95047.03
2022-11-07T02:45:59.663Z,95048.59
2022-11-07T02:49:08.090Z,95050.88
2022-11-07T02:52:16.431Z,95049.69
2022-11-07T02:55:24.832Z,95051.63
2022-11-07T02:58:35.005Z,95057.94
2022-11-07T03:01:43.488Z,95056.31
2022-11-07T03:04:52.256Z,95053.72
2022-11-07T03:08:00.728Z,95060.41
2022-11-07T03:11:09.275Z,95061.19
2022-11-07T03:14:19.211Z,95055.78
2022-11-07T03:17:28.018Z,95063.06
2022-11-07T03:20:36.336Z,95075.63
2022-11-07T03:23:44.593Z,95069.53
2022-11-07T03:26:53.047Z,95063.06
2022-11-07T03:30:05.516Z,95068.31
2022-11-07T03:33:15.250Z,95065.47
2022-11-07T03:36:23.845Z,95061.81
2022-11-07T03:39:32.072Z,95050.19
2022-11-07T03:42:41.361Z,95054.50
2022-11-07T03:45:51.089Z,95064.38
2022-11-07T03:49:00.408Z,95059.44
2022-11-07T03:52:08.892Z,95070.44
2022-11-07T03:55:18.216Z,95074.13
2022-11-07T03:58:27.812Z,95079.56
2022-11-07T04:01:37.799Z,95076.75
2022-11-07T04:04:46.125Z,95085.69
2022-11-07T04:07:54.427Z,95090.88
2022-11-07T04:11:02.791Z,95088.84
2022-11-07T04:14:28.408Z,95092.91
2022-11-07T04:17:38.192Z,95097.72
2022-11-07T04:20:46.434Z,95098.91
2022-11-07T04:23:54.622Z,95092.06
2022-11-07T04:27:20.463Z,95095.53
2022-11-07T04:30:29.932Z,95096.06
2022-11-07T04:33:39.477Z,95099.19
2022-11-07T04:36:47.659Z,95095.41
2022-11-07T04:39:55.810Z,95091.44
2022-11-07T04:43:08.983Z,95097.72
2022-11-07T04:46:17.751Z,95098.25
2022-11-07T04:49:27.302Z,95096.97
2022-11-07T04:52:35.651Z,95092.09
2022-11-07T04:55:44.868Z,95107.00
2022-11-07T04:58:53.077Z,95099.66
2022-11-07T05:02:01.687Z,95095.25
2022-11-07T05:05:12.432Z,95097.91
2022-11-07T05:08:20.964Z,95099.63
2022-11-07T05:11:29.472Z,95106.22
2022-11-07T05:14:37.754Z,95108.50
2022-11-07T05:17:46.544Z,95113.88
2022-11-07T05:20:57.696Z,95117.50
2022-11-07T05:24:07.004Z,95118.22
2022-11-07T05:27:20.099Z,95128.00
2022-11-07T05:30:28.662Z,95133.31
2022-11-07T05:33:37.495Z,95124.56
2022-11-07T05:36:47.160Z,95135.66
2022-11-07T05:39:55.404Z,95131.19
2022-11-07T05:43:05.631Z,95134.72
2022-11-07T05:46:14.464Z,95125.75
2022-11-07T05:49:22.670Z,95130.50
2022-11-07T05:52:33.431Z,95136.50
2022-11-07T05:55:41.932Z,95135.28
2022-11-07T05:58:50.186Z,95141.13
2022-11-07T06:01:58.622Z,95144.66
2022-11-07T06:05:08.279Z,95141.13
2022-11-07T06:08:19.187Z,95147.84
2022-11-07T06:11:27.435Z,95141.84
2022-11-07T06:14:35.664Z,95151.19
2022-11-07T06:17:43.886Z,95150.84
2022-11-07T06:20:52.140Z,95151.22
2022-11-07T06:24:01.915Z,95155.25
2022-11-07T06:27:10.300Z,95163.91
2022-11-07T06:30:18.718Z,95160.13
2022-11-07T06:33:27.239Z,95165.84
2022-11-07T06:36:35.689Z,95165.19
2022-11-07T06:39:45.440Z,95164.59
2022-11-07T06:42:53.697Z,95166.78
2022-11-07T06:46:07.064Z,95169.47
2022-11-07T06:49:15.793Z,95174.00
2022-11-07T06:52:24.695Z,95184.09
2022-11-07T06:55:38.923Z,95185.44
2022-11-07T06:58:47.416Z,95183.47
2022-11-07T07:01:55.779Z,95194.34
2022-11-07T07:05:04.053Z,95195.16
2022-11-07T07:08:14.800Z,95196.75
2022-11-07T07:11:24.547Z,95203.00
2022-11-07T07:14:33.105Z,95198.31
2022-11-07T07:17:41.423Z,95196.59
2022-11-07T07:20:51.605Z,95196.88
2022-11-07T07:23:59.814Z,95199.13
2022-11-07T07:27:10.988Z,95197.00
2022-11-07T07:30:19.346Z,95206.72
2022-11-07T07:33:28.916Z,95208.16
2022-11-07T07:36:37.139Z,95200.97
2022-11-07T07:39:45.321Z,95195.28
2022-11-07T07:42:57.016Z,95203.31
2022-11-07T07:46:08.852Z,95201.13
2022-11-07T07:49:17.053Z,95201.25
2022-11-07T07:52:25.473Z,95200.81
2022-11-07T07:55:33.764Z,95201.97
2022-11-07T07:58:43.308Z,95196.09
2022-11-07T08:01:56.586Z,95202.81
2022-11-07T08:05:06.532Z,95189.59
2022-11-07T08:08:14.745Z,95189.91
2022-11-07T08:11:22.988Z,95194.47
2022-11-07T08:14:32.863Z,95198.88
2022-11-07T08:17:41.803Z,95201.13
2022-11-07T08:20:52.335Z,95197.47
2022-11-07T08:24:00.966Z,95194.25
2022-11-07T08:27:09.172Z,95202.72
2022-11-07T08:30:19.207Z,95189.88
2022-11-07T08:33:28.287Z,95191.09
2022-11-07T08:36:37.867Z,95196.88
2022-11-07T08:39:46.514Z,95192.84
2022-11-07T08:43:00.343Z,95202.31
2022-11-07T08:46:10.083Z,95198.22
2022-11-07T08:49:18.370Z,95204.38
2022-11-07T08:52:26.548Z,95194.53
2022-11-07T08:55:34.740Z,95202.13
2022-11-07T08:58:42.895Z,95203.56
2022-11-07T09:05:20.912Z,95198.63
2022-11-07T09:08:29.378Z,95197.16
2022-11-07T09:11:37.604Z,95204.78
2022-11-07T09:14:46.354Z,95208.44
2022-11-07T09:17:55.997Z,95199.84
2022-11-07T09:21:04.318Z,95211.13
2022-11-07T09:24:13.611Z,95214.00
2022-11-07T09:27:22.473Z,95213.56
2022-11-07T09:30:30.912Z,95222.78
2022-11-07T09:33:40.622Z,95226.03
2022-11-07T09:36:48.880Z,95227.25
2022-11-07T09:39:57.102Z,95228.66
2022-11-07T09:43:39.775Z,95223.91
2022-11-07T09:46:58.692Z,95214.44
2022-11-07T09:50:16.409Z,95228.00
2022-11-07T09:53:33.976Z,95229.16
2022-11-07T09:56:45.087Z,95220.88
2022-11-07T09:59:58.797Z,95220.81
2022-11-07T10:03:09.965Z,95222.81
2022-11-07T10:06:26.715Z,95223.84
2022-11-07T10:09:47.779Z,95216.09
2022-11-07T10:13:33.875Z,95220.63
2022-11-07T10:17:00.421Z,95212.97
2022-11-07T10:20:24.964Z,95209.94
2022-11-07T10:23:53.291Z,95215.16
2022-11-07T10:27:03.608Z,95217.88
2022-11-07T10:30:18.442Z,95220.91
2022-11-07T10:33:41.163Z,95214.72
2022-11-07T10:36:50.193Z,95216.31
2022-11-07T10:39:59.837Z,95213.47
2022-11-07T10:43:18.229Z,95217.19
2022-11-07T10:46:38.970Z,95214.31
2022-11-07T10:50:02.607Z,95207.28
2022-11-07T10:53:25.079Z,95210.69
2022-11-07T10:56:46.418Z,95200.06
2022-11-07T11:00:00.177Z,95203.34
2022-11-07T11:03:29.053Z,95207.16
2022-11-07T11:06:44.974Z,95199.75
2022-11-07T11:09:56.427Z,95199.56
2022-11-07T11:13:06.573Z,95194.69
2022-11-07T11:16:32.345Z,95201.50
2022-11-07T11:19:52.494Z,95195.31
2022-11-07T11:23:02.343Z,95197.47
2022-11-07T11:26:22.932Z,95193.59
2022-11-07T11:29:41.564Z,95200.09
2022-11-07T11:32:58.389Z,95196.88
2022-11-07T11:36:15.912Z,95186.06
2022-11-07T11:39:34.802Z,95195.69
2022-11-07T11:42:52.792Z,95189.63
2022-11-07T11:46:13.623Z,95182.25
2022-11-07T11:49:33.176Z,95174.66
2022-11-07T11:52:42.198Z,95173.63
2022-11-07T11:56:01.503Z,95171.25
2022-11-07T11:59:57.872Z,95169.00
2022-11-07T12:03:43.511Z,95171.84
2022-11-07T12:07:01.660Z,95161.41
2022-11-07T12:10:23.459Z,95159.63
2022-11-07T12:13:44.700Z,95164.97
2022-11-07T12:17:05.457Z,95168.28
2022-11-07T12:20:26.793Z,95165.91
2022-11-07T12:24:01.538Z,95157.34
2022-11-07T12:27:25.678Z,95153.59
2022-11-07T12:30:52.738Z,95149.34
2022-11-07T12:34:18.634Z,95148.03
2022-11-07T12:38:03.632Z,95147.13
2022-11-07T12:41:29.590Z,95133.56
2022-11-07T12:45:00.619Z,95135.19
2022-11-07T12:48:54.820Z,95132.44
2022-11-07T12:52:19.145Z,95138.06
2022-11-07T12:55:38.042Z,95133.56
2022-11-07T12:58:48.952Z,95130.88
2022-11-07T13:02:13.168Z,95131.94
2022-11-07T13:05:50.053Z,95124.03
2022-11-07T13:09:15.303Z,95134.03
2022-11-07T13:12:36.126Z,95122.25
2022-11-07T13:16:13.660Z,95126.28
2022-11-07T13:19:33.253Z,95126.00
2022-11-07T13:22:42.632Z,95130.44
2022-11-07T13:26:03.988Z,95131.06
2022-11-07T13:29:27.661Z,95137.13
2022-11-07T13:32:40.164Z,95139.50
2022-11-07T13:35:55.851Z,95142.94
2022-11-07T13:39:08.658Z,95143.84
2022-11-07T13:42:20.521Z,95137.66
2022-11-07T13:45:38.398Z,95139.03
2022-11-07T13:48:52.733Z,95137.66
2022-11-07T13:52:09.512Z,95144.44
2022-11-07T13:55:25.227Z,95142.97
2022-11-07T13:58:40.457Z,95145.72
2022-11-07T14:01:57.779Z,95146.00
2022-11-07T14:05:16.350Z,95144.50
2022-11-07T14:08:32.546Z,95144.38
2022-11-07T14:11:41.956Z,95150.75
2022-11-07T14:14:54.425Z,95150.38
2022-11-07T14:18:05.090Z,95153.00
2022-11-07T14:21:21.994Z,95156.84
2022-11-07T14:24:32.702Z,95152.31
2022-11-07T14:27:47.556Z,95148.41
2022-11-07T14:30:56.024Z,95151.09
2022-11-07T14:34:20.810Z,95145.38
2022-11-07T14:37:29.194Z,95147.91
2022-11-07T14:40:38.994Z,95149.19
2022-11-07T14:43:48.837Z,95144.28
2022-11-07T14:46:59.334Z,95140.13
2022-11-07T14:50:17.102Z,95141.06
2022-11-07T14:53:31.916Z,95144.53
2022-11-07T14:56:46.249Z,95141.72
2022-11-07T14:59:55.261Z,95136.19
2022-11-07T15:03:03.682Z,95142.34
2022-11-07T15:06:25.058Z,95154.50
2022-11-07T15:09:35.624Z,95145.44
2022-11-07T15:12:52.556Z,95143.19
2022-11-07T15:16:05.407Z,95145.19
2022-11-07T15:19:20.446Z,95153.75
2022-11-07T15:22:36.833Z,95161.13
2022-11-07T15:25:55.952Z,95158.38
2022-11-07T15:29:16.596Z,95153.16
2022-11-07T15:32:27.690Z,95153.06
2022-11-07T15:35:44.110Z,95159.94
2022-11-07T15:38:55.868Z,95159.59
2022-11-07T15:42:04.345Z,95160.47
2022-11-07T15:45:14.826Z,95159.91
2022-11-07T15:48:29.514Z,95165.31
2022-11-07T15:51:38.050Z,95168.66
2022-11-07T15:54:48.302Z,95167.72
2022-11-07T15:57:56.631Z,95171.88
2022-11-07T16:01:04.996Z,95171.44
2022-11-07T16:04:13.523Z,95170.28
2022-11-07T16:07:22.068Z,95166.47
2022-11-07T16:10:33.445Z,95173.25
2022-11-07T16:13:41.731Z,95168.81
2022-11-07T16:16:50.821Z,95173.31
2022-11-07T16:20:01.539Z,95166.25
2022-11-07T16:23:11.180Z,95173.84
2022-11-07T16:26:28.974Z,95179.44
2022-11-07T16:29:37.280Z,95174.75
2022-11-07T16:32:45.704Z,95170.03
2022-11-07T16:35:57.828Z,95179.25
2022-11-07T16:39:08.993Z,95175.41
2022-11-07T16:42:18.670Z,95178.19
2022-11-07T16:45:27.495Z,95181.13
2022-11-07T16:48:39.741Z,95175.06
2022-11-07T16:51:49.068Z,95173.31
2022-11-07T16:54:59.630Z,95181.16
2022-11-07T16:58:28.733Z,95186.97
2022-11-07T17:01:38.311Z,95183.69
2022-11-07T17:04:47.172Z,95180.22
2022-11-07T17:07:56.080Z,95178.25
2022-11-07T17:11:05.115Z,95174.63
2022-11-07T17:14:15.349Z,95174.06
2022-11-07T17:17:24.097Z,95175.78
2022-11-07T17:24:04.183Z,95183.06
2022-11-07T17:27:22.864Z,95181.63
2022-11-07T17:30:34.474Z,95187.88
2022-11-07T17:33:43.445Z,95188.41
2022-11-07T17:36:56.260Z,95179.03
2022-11-07T17:40:05.232Z,95185.00
2022-11-07T17:43:13.608Z,95173.22
2022-11-07T17:46:27.354Z,95180.91
2022-11-07T17:49:35.883Z,95174.53
2022-11-07T17:52:44.165Z,95188.53
2022-11-07T17:55:52.566Z,95186.53
2022-11-07T17:59:04.167Z,95175.47
2022-11-07T18:02:18.672Z,95179.03
2022-11-07T18:05:32.976Z,95184.06
2022-11-07T18:08:52.348Z,95175.69
2022-11-07T18:12:01.293Z,95179.22
2022-11-07T18:15:12.757Z,95168.22
2022-11-07T18:18:22.733Z,95175.91
2022-11-07T18:21:31.135Z,95174.47
2022-11-07T18:24:39.399Z,95171.91
2022-11-07T18:27:49.381Z,95174.84
2022-11-07T18:31:04.372Z,95170.03
2022-11-07T18:34:15.580Z,95166.41
2022-11-07T18:37:25.950Z,95161.16
2022-11-07T18:40:34.202Z,95167.44
2022-11-07T18:43:42.610Z,95165.50
2022-11-07T18:46:50.926Z,95163.22
2022-11-07T18:50:00.571Z,95159.22
2022-11-07T18:53:09.289Z,95155.75
2022-11-07T18:56:20.203Z,95157.28
2022-11-07T18:59:30.702Z,95154.59
2022-11-07T19:02:38.979Z,95160.38
2022-11-07T19:05:49.960Z,95155.34
2022-11-07T19:08:58.777Z,95164.59
2022-11-07T19:12:08.012Z,95153.88
2022-11-07T19:15:16.405Z,95156.66
2022-11-07T19:18:24.871Z,95164.19
2022-11-07T19:21:34.581Z,95155.06
2022-11-07T19:24:42.739Z,95158.53
2022-11-07T19:27:51.680Z,95154.25
2022-11-07T19:31:04.319Z,95170.31
2022-11-07T19:34:12.702Z,95164.34
2022-11-07T19:37:26.664Z,95169.97
2022-11-07T19:40:36.149Z,95173.59
2022-11-07T19:43:48.442Z,95169.47
2022-11-07T19:46:57.638Z,95172.94
2022-11-07T19:50:06.960Z,95174.44
2022-11-07T19:53:17.384Z,95164.88
2022-11-07T19:56:29.144Z,95166.22
2022-11-07T19:59:37.449Z,95165.69
2022-11-07T20:02:48.416Z,95163.19
2022-11-07T20:05:56.803Z,95167.19
2022-11-07T20:09:11.194Z,95168.50
2022-11-07T20:12:19.608Z,95158.97
2022-11-07T20:15:28.082Z,95167.69
2022-11-07T20:18:36.783Z,95166.91
2022-11-07T20:21:45.391Z,95177.78
2022-11-07T20:24:55.353Z,95172.19
2022-11-07T20:28:03.627Z,95170.53
2022-11-07T20:31:13.467Z,95172.66
2022-11-07T20:34:22.082Z,95181.44
2022-11-07T20:37:30.404Z,95177.47
2022-11-07T20:40:40.642Z,95185.03
2022-11-07T20:43:49.069Z,95179.75
2022-11-07T20:46:57.714Z,95186.38
2022-11-07T20:50:07.585Z,95191.66
2022-11-07T20:53:16.580Z,95191.97
2022-11-07T20:56:29.517Z,95196.94
2022-11-07T20:59:39.343Z,95189.66
2022-11-07T21:02:47.724Z,95190.00
2022-11-07T21:05:56.545Z,95181.56
2022-11-07T21:09:06.821Z,95179.75
2022-11-07T21:12:16.441Z,95174.97
2022-11-07T21:15:24.655Z,95183.72
2022-11-07T21:18:33.496Z,95184.38
2022-11-07T21:21:42.157Z,95182.41
2022-11-07T21:24:50.709Z,95175.97
2022-11-07T21:28:00.773Z,95173.47
2022-11-07T21:31:12.681Z,95170.84
2022-11-07T21:34:21.086Z,95170.16
2022-11-07T21:37:29.379Z,95173.16
2022-11-07T21:40:38.680Z,95169.19
2022-11-07T21:43:51.149Z,95165.88
2022-11-07T21:47:00.223Z,95161.25
2022-11-07T21:50:30.733Z,95160.44
2022-11-07T21:53:38.509Z,95170.81
2022-11-07T21:56:46.837Z,95173.97
2022-11-07T21:59:59.101Z,95171.78
2022-11-07T22:03:07.987Z,95164.03
2022-11-07T22:06:19.450Z,95169.50
2022-11-07T22:09:28.598Z,95173.59
2022-11-07T22:12:36.916Z,95176.09
2022-11-07T22:15:46.709Z,95177.41
2022-11-07T22:18:55.312Z,95177.56
2022-11-07T22:22:04.149Z,95179.03
2022-11-07T22:25:12.591Z,95173.13
2022-11-07T22:28:21.161Z,95171.47
2022-11-07T22:31:32.500Z,95170.13
2022-11-07T22:34:40.958Z,95168.47
2022-11-07T22:37:49.466Z,95161.34
2022-11-07T22:40:58.104Z,95160.88
2022-11-07T22:44:06.800Z,95163.34
2022-11-07T22:47:16.807Z,95158.72
2022-11-07T22:50:25.205Z,95159.53
2022-11-07T22:53:34.283Z,95151.75
2022-11-07T22:56:43.153Z,95151.59
2022-11-07T22:59:51.703Z,95151.63
2022-11-07T23:03:01.719Z,95153.78
2022-11-07T23:06:10.502Z,95151.75
2022-11-07T23:09:19.433Z,95145.69
2022-11-07T23:12:27.808Z,95153.25
2022-11-07T23:15:36.092Z,95154.75
2022-11-07T23:18:45.756Z,95151.59
2022-11-07T23:21:57.558Z,95147.25
2022-11-07T23:25:08.787Z,95146.13
2022-11-07T23:28:18.102Z,95151.88
2022-11-07T23:31:27.493Z,95154.97
2022-11-07T23:34:37.762Z,95147.69
2022-11-07T23:37:46.523Z,95149.81
2022-11-07T23:40:55.008Z,95139.91
2022-11-07T23:44:03.521Z,95135.81
2022-11-07T23:47:25.832Z,95127.91
2022-11-07T23:50:53.461Z,95130.56
2022-11-07T23:54:19.596Z,95139.53
2022-11-07T23:57:27.975Z,95135.75
